Time;durP1;ratioP1;P1;durP2;ratioP2;P2;SDS_P1;SDS_P2;PMS_P1;PMS_P2;Temp;Humidity;BMP_temperature;BMP_pressure;BME280_temperature;BME280_humidity;BME280_pressure;Samples;Min_cycle;Max_cycle;Signal;HPM_P1;HPM_P2
2021/06/02 00:01:06;;;;;;;4.63;3.23;;;14.40;98.30;;;;;;4050215;29;20492;-83
2021/06/02 00:03:15;;;;;;;5.20;3.30;;;14.40;98.30;;;;;;4049224;29;21065;-83
2021/06/02 00:05:19;;;;;;;3.63;3.17;;;14.30;98.30;;;;;;4048536;29;20480;-83
2021/06/02 00:07:24;;;;;;;3.87;3.00;;;14.20;98.30;;;;;;4048334;29;20496;-84
2021/06/02 00:09:28;;;;;;;4.60;3.37;;;14.30;98.30;;;;;;4047773;29;20858;-84
2021/06/02 00:11:35;;;;;;;3.70;3.00;;;14.30;98.30;;;;;;4048664;29;20535;-83
2021/06/02 00:13:39;;;;;;;4.20;3.03;;;14.30;98.30;;;;;;4046802;29;21790;-84
2021/06/02 00:15:42;;;;;;;3.63;2.87;;;14.30;98.30;;;;;;4049553;29;20487;-84
2021/06/02 00:17:44;;;;;;;3.47;3.17;;;14.30;98.30;;;;;;4049554;29;20502;-83
2021/06/02 00:19:47;;;;;;;4.47;3.00;;;14.30;98.30;;;;;;4047523;29;20507;-82
2021/06/02 00:21:49;;;;;;;3.40;3.10;;;14.30;98.30;;;;;;4045553;29;20503;-84
2021/06/02 00:23:52;;;;;;;3.27;2.97;;;14.20;98.30;;;;;;4049086;29;20475;-83
2021/06/02 00:25:55;;;;;;;3.47;3.17;;;14.30;98.30;;;;;;4049796;29;20487;-82
2021/06/02 00:27:58;;;;;;;4.93;3.30;;;14.20;98.30;;;;;;4046902;29;20483;-83
2021/06/02 00:30:06;;;;;;;4.37;3.20;;;14.20;98.30;;;;;;4049839;29;20762;-84
2021/06/02 00:32:09;;;;;;;4.70;3.20;;;14.40;98.30;;;;;;4047228;29;20487;-83
2021/06/02 00:34:12;;;;;;;4.90;3.03;;;14.40;98.30;;;;;;4051456;29;20475;-83
2021/06/02 00:36:17;;;;;;;4.70;2.83;;;14.30;98.30;;;;;;4048746;29;21097;-83
2021/06/02 00:38:20;;;;;;;3.30;2.83;;;14.40;98.30;;;;;;4048964;29;20471;-83
2021/06/02 00:40:33;;;;;;;3.60;2.70;;;14.30;98.30;;;;;;4049247;29;20472;-84
2021/06/02 00:42:35;;;;;;;3.07;2.77;;;14.30;98.30;;;;;;4051631;29;20551;-83
2021/06/02 00:44:38;;;;;;;6.33;2.83;;;14.20;98.30;;;;;;4050800;29;20478;-83
2021/06/02 00:46:43;;;;;;;2.70;2.50;;;14.20;98.30;;;;;;4050942;29;20470;-84
2021/06/02 00:48:46;;;;;;;3.37;2.93;;;14.20;98.30;;;;;;4050876;29;20552;-83
2021/06/02 00:50:50;;;;;;;4.80;2.80;;;14.20;98.30;;;;;;4049726;29;20494;-84
2021/06/02 00:52:53;;;;;;;6.67;3.27;;;14.10;98.30;;;;;;4047684;29;20476;-83
2021/06/02 00:54:56;;;;;;;8.30;5.33;;;14.20;98.30;;;;;;4051209;29;20482;-83
2021/06/02 00:57:04;;;;;;;6.67;3.77;;;14.20;98.30;;;;;;4048533;29;20538;-84
2021/06/02 00:59:09;;;;;;;3.73;3.00;;;14.20;98.30;;;;;;4047309;29;20482;-82
2021/06/02 01:01:12;;;;;;;3.73;2.80;;;14.00;98.30;;;;;;4052927;29;20490;-83
2021/06/02 01:03:22;;;;;;;5.50;3.07;;;14.10;98.30;;;;;;4050732;29;20942;-82
2021/06/02 01:05:26;;;;;;;5.17;2.90;;;14.20;98.30;;;;;;4048965;29;20471;-83
2021/06/02 01:07:28;;;;;;;6.50;3.13;;;14.20;98.30;;;;;;4051225;29;20483;-83
2021/06/02 01:09:34;;;;;;;5.80;3.07;;;14.10;98.30;;;;;;4050248;29;20555;-83
2021/06/02 01:11:38;;;;;;;4.23;2.90;;;14.20;98.30;;;;;;4050250;29;20579;-83
2021/06/02 01:13:42;;;;;;;11.53;8.20;;;14.00;98.30;;;;;;4047092;29;20480;-82
2021/06/02 01:15:47;;;;;;;15.10;9.63;;;14.10;98.30;;;;;;4047811;29;20512;-83
2021/06/02 01:17:49;;;;;;;13.33;9.60;;;14.10;98.30;;;;;;4051017;29;20488;-83
2021/06/02 01:19:58;;;;;;;5.20;3.40;;;14.20;98.30;;;;;;4049713;29;20507;-82
2021/06/02 01:22:02;;;;;;;3.67;3.10;;;14.00;98.30;;;;;;4050794;29;20822;-83
2021/06/02 01:24:05;;;;;;;3.97;3.13;;;13.90;98.30;;;;;;4049336;29;20472;-83
2021/06/02 01:26:08;;;;;;;6.60;2.97;;;14.00;98.30;;;;;;4050862;29;20552;-83
2021/06/02 01:28:11;;;;;;;4.77;2.90;;;14.10;98.30;;;;;;4050708;29;21008;-82
2021/06/02 01:30:16;;;;;;;3.83;3.13;;;14.00;98.30;;;;;;4050813;29;20478;-83
2021/06/02 01:32:30;;;;;;;3.97;3.20;;;14.20;98.30;;;;;;4048390;29;20488;-83
2021/06/02 01:34:55;;;;;;;4.50;3.00;;;14.20;98.30;;;;;;4050113;29;20482;-83
2021/06/02 01:37:28;;;;;;;7.97;3.10;;;14.00;98.30;;;;;;4045818;29;20490;-83
2021/06/02 01:39:51;;;;;;;3.97;2.93;;;13.80;98.30;;;;;;4044372;29;20483;-82
2021/06/02 01:42:11;;;;;;;3.10;2.80;;;13.90;98.30;;;;;;4050267;29;20500;-83
2021/06/02 01:44:44;;;;;;;3.70;3.10;;;14.10;98.30;;;;;;4049714;29;20892;-83
2021/06/02 01:47:03;;;;;;;3.40;3.10;;;14.10;98.30;;;;;;4047450;29;21012;-83
2021/06/02 01:49:27;;;;;;;4.40;3.07;;;14.10;98.30;;;;;;4049096;29;20475;-83
2021/06/02 01:52:08;;;;;;;3.00;2.70;;;14.00;98.30;;;;;;4050031;29;20504;-83
2021/06/02 01:54:37;;;;;;;3.37;3.07;;;13.90;98.30;;;;;;4048815;29;20965;-83
2021/06/02 01:57:13;;;;;;;3.50;2.60;;;14.00;98.30;;;;;;4047607;29;21065;-83
2021/06/02 02:00:03;;;;;;;4.73;3.80;;;13.90;98.30;;;;;;4049782;29;20838;-83
2021/06/02 02:02:23;;;;;;;3.70;2.50;;;13.90;98.30;;;;;;4049983;29;20583;-83
2021/06/02 02:04:57;;;;;;;3.10;2.70;;;13.90;98.30;;;;;;4049823;29;20471;-82
2021/06/02 02:07:25;;;;;;;8.87;5.90;;;13.90;98.30;;;;;;4048676;29;21291;-83
2021/06/02 02:09:46;;;;;;;11.30;7.57;;;13.90;98.30;;;;;;4048718;29;20584;-83
2021/06/02 02:11:48;;;;;;;3.70;3.10;;;13.80;98.30;;;;;;4051108;29;20480;-83
2021/06/02 02:14:04;;;;;;;3.90;3.27;;;13.80;98.30;;;;;;4058746;29;20476;-82
2021/06/02 02:16:20;;;;;;;4.43;2.80;;;13.80;98.30;;;;;;4060145;29;20575;-84
2021/06/02 02:18:45;;;;;;;5.60;3.03;;;13.90;98.30;;;;;;4056803;29;20488;-83
2021/06/02 02:20:53;;;;;;;3.13;2.70;;;13.80;98.30;;;;;;4054681;29;20580;-83
2021/06/02 02:23:12;;;;;;;7.77;3.20;;;13.70;98.30;;;;;;4055472;29;20476;-82
2021/06/02 02:25:23;;;;;;;4.37;3.07;;;13.80;98.30;;;;;;4054751;29;20468;-83
2021/06/02 02:27:33;;;;;;;3.10;2.70;;;13.70;98.30;;;;;;4050884;29;20463;-83
2021/06/02 02:29:45;;;;;;;2.70;2.50;;;13.60;98.30;;;;;;4052291;29;20470;-83
2021/06/02 02:32:03;;;;;;;3.50;2.67;;;13.60;98.30;;;;;;4051814;29;20856;-83
2021/06/02 02:34:18;;;;;;;2.73;2.47;;;13.70;98.30;;;;;;4051878;29;20464;-82
2021/06/02 02:36:29;;;;;;;4.77;3.60;;;13.70;98.30;;;;;;4051315;29;20480;-83
2021/06/02 02:38:44;;;;;;;3.87;2.80;;;13.80;98.30;;;;;;4048739;29;20492;-83
2021/06/02 02:41:02;;;;;;;3.60;2.90;;;13.90;98.30;;;;;;4052004;29;20488;-82
2021/06/02 02:43:11;;;;;;;4.50;2.50;;;13.80;98.30;;;;;;4050691;29;21061;-83
2021/06/02 02:45:24;;;;;;;3.10;2.80;;;13.90;98.30;;;;;;4049455;29;20476;-83
2021/06/02 02:47:33;;;;;;;4.73;2.87;;;13.90;98.30;;;;;;4046251;29;20465;-83
2021/06/02 02:49:46;;;;;;;3.60;3.03;;;13.90;98.30;;;;;;4049150;29;20476;-83
2021/06/02 02:52:03;;;;;;;5.20;3.00;;;13.80;98.30;;;;;;4051628;29;20502;-83
2021/06/02 02:54:25;;;;;;;4.70;2.93;;;13.80;98.30;;;;;;4050900;29;20476;-84
2021/06/02 02:56:37;;;;;;;4.30;3.00;;;13.70;98.30;;;;;;4052708;29;20479;-83
2021/06/02 02:58:50;;;;;;;4.10;2.83;;;13.70;98.30;;;;;;4051381;29;20526;-83
2021/06/02 03:01:00;;;;;;;3.80;3.03;;;13.70;98.30;;;;;;4049745;29;20507;-84
2021/06/02 03:03:12;;;;;;;3.83;2.40;;;13.70;98.30;;;;;;4049135;29;20475;-83
2021/06/02 03:05:22;;;;;;;5.80;3.30;;;13.60;98.30;;;;;;4046200;29;20468;-82
2021/06/02 03:07:26;;;;;;;3.80;3.00;;;13.70;98.30;;;;;;4049559;29;20464;-83
2021/06/02 03:09:32;;;;;;;4.57;3.50;;;13.60;98.30;;;;;;4050278;29;20471;-84
2021/06/02 03:11:42;;;;;;;3.47;3.10;;;13.60;98.30;;;;;;4050000;29;20632;-83
2021/06/02 03:13:50;;;;;;;4.60;3.40;;;13.50;98.30;;;;;;4051021;29;20842;-83
2021/06/02 03:16:00;;;;;;;3.80;3.27;;;13.50;98.30;;;;;;4050614;29;20551;-83
2021/06/02 03:18:12;;;;;;;4.23;3.20;;;13.40;98.30;;;;;;4052071;29;20522;-83
2021/06/02 03:20:20;;;;;;;3.80;3.00;;;13.40;98.30;;;;;;4048482;29;20479;-82
2021/06/02 03:22:27;;;;;;;4.10;3.00;;;13.30;98.30;;;;;;4050212;29;20465;-83
2021/06/02 03:24:53;;;;;;;4.07;3.00;;;13.30;98.30;;;;;;4049449;29;20468;-83
2021/06/02 03:27:03;;;;;;;9.50;7.03;;;13.20;98.30;;;;;;4050149;29;20990;-83
2021/06/02 03:29:18;;;;;;;16.30;10.50;;;13.30;98.30;;;;;;4050253;29;20468;-83
2021/06/02 03:31:29;;;;;;;16.67;9.90;;;13.50;98.30;;;;;;4049971;29;20558;-83
2021/06/02 03:33:49;;;;;;;6.07;4.23;;;13.40;98.30;;;;;;4050799;29;20554;-83
2021/06/02 03:36:03;;;;;;;5.20;3.90;;;13.50;98.30;;;;;;4050522;29;20467;-84
2021/06/02 03:38:18;;;;;;;4.37;3.40;;;13.60;98.30;;;;;;4049283;29;20911;-83
2021/06/02 03:40:33;;;;;;;6.07;3.60;;;13.60;98.30;;;;;;4049591;29;20476;-83
2021/06/02 03:42:46;;;;;;;4.20;3.43;;;13.50;98.30;;;;;;4050120;29;20476;-83
2021/06/02 03:45:02;;;;;;;4.97;3.60;;;13.50;98.30;;;;;;4048516;29;20475;-84
2021/06/02 03:47:21;;;;;;;4.70;3.60;;;13.50;98.30;;;;;;4048666;29;20467;-83
2021/06/02 03:49:33;;;;;;;5.10;3.80;;;13.40;98.30;;;;;;4050045;29;20468;-83
2021/06/02 03:51:38;;;;;;;5.07;3.77;;;13.40;98.30;;;;;;4048925;29;20503;-84
2021/06/02 03:54:10;;;;;;;4.27;3.90;;;13.20;98.30;;;;;;4042422;29;20574;-84
2021/06/02 03:56:23;;;;;;;6.67;4.30;;;13.20;98.30;;;;;;4028703;29;21215;-83
2021/06/02 03:58:48;;;;;;;5.50;3.50;;;13.10;98.30;;;;;;4051010;29;20488;-83
2021/06/02 04:01:02;;;;;;;8.40;4.80;;;13.10;98.30;;;;;;4046239;29;20926;-83
2021/06/02 04:03:11;;;;;;;7.27;4.07;;;13.10;98.30;;;;;;4050794;29;20472;-83
2021/06/02 04:05:22;;;;;;;5.50;4.10;;;13.00;98.30;;;;;;4048452;29;20470;-83
2021/06/02 04:07:34;;;;;;;10.37;4.57;;;13.10;98.30;;;;;;4051680;29;20474;-83
2021/06/02 04:09:43;;;;;;;5.90;3.97;;;13.00;98.30;;;;;;4051920;29;20471;-83
2021/06/02 04:11:50;;;;;;;5.03;3.90;;;13.10;98.30;;;;;;4053979;29;20488;-83
2021/06/02 04:13:57;;;;;;;5.33;4.00;;;13.10;98.30;;;;;;4058002;29;20547;-84
2021/06/02 04:16:09;;;;;;;5.47;4.27;;;12.90;98.30;;;;;;4057357;29;20986;-83
2021/06/02 04:18:12;;;;;;;4.53;4.10;;;12.90;98.30;;;;;;4056926;29;20493;-82
2021/06/02 04:20:17;;;;;;;6.43;4.30;;;13.10;98.30;;;;;;4058850;29;20494;-83
2021/06/02 04:22:21;;;;;;;9.63;4.30;;;13.10;98.30;;;;;;4057923;29;20490;-83
2021/06/02 04:24:24;;;;;;;12.17;4.23;;;13.20;98.30;;;;;;4058331;29;20498;-83
2021/06/02 04:26:31;;;;;;;5.57;4.37;;;13.20;98.30;;;;;;4058838;29;20503;-83
2021/06/02 04:28:35;;;;;;;5.40;4.30;;;13.20;98.30;;;;;;4059831;29;20523;-83
2021/06/02 04:30:49;;;;;;;6.00;4.77;;;13.20;98.30;;;;;;4059283;29;20471;-83
2021/06/02 04:32:58;;;;;;;10.80;4.67;;;13.10;98.30;;;;;;4058688;29;20518;-83
2021/06/02 04:35:01;;;;;;;8.50;5.93;;;12.90;98.30;;;;;;4058034;29;20483;-83
2021/06/02 04:37:05;;;;;;;14.00;8.63;;;12.90;98.30;;;;;;4057555;29;20475;-83
2021/06/02 04:39:09;;;;;;;5.97;4.43;;;12.90;98.30;;;;;;4055528;29;20495;-82
2021/06/02 04:41:12;;;;;;;10.20;5.60;;;12.90;98.30;;;;;;4056404;29;21148;-83
2021/06/02 04:43:15;;;;;;;6.90;4.80;;;13.00;98.30;;;;;;4055381;29;20480;-84
2021/06/02 04:45:24;;;;;;;8.50;5.70;;;13.00;98.30;;;;;;4053983;29;20559;-84
2021/06/02 04:47:30;;;;;;;6.40;4.97;;;13.10;98.30;;;;;;4055866;29;20472;-83
2021/06/02 04:49:44;;;;;;;6.53;5.30;;;13.10;98.30;;;;;;4055898;29;20467;-83
2021/06/02 04:52:33;;;;;;;7.40;5.10;;;12.90;98.30;;;;;;4055061;29;20492;-83
2021/06/02 04:55:13;;;;;;;9.33;5.50;;;12.90;98.30;;;;;;4056640;29;20539;-83
2021/06/02 04:57:39;;;;;;;7.63;4.87;;;13.10;98.30;;;;;;4056404;29;20535;-83
2021/06/02 05:00:03;;;;;;;9.43;6.40;;;13.30;98.30;;;;;;4055388;29;20478;-83
2021/06/02 05:02:21;;;;;;;7.83;5.70;;;13.20;98.30;;;;;;4056450;29;20528;-84
2021/06/02 05:05:07;;;;;;;8.23;5.60;;;13.20;98.30;;;;;;4056379;29;20551;-83
2021/06/02 05:07:49;;;;;;;11.17;6.10;;;13.20;98.30;;;;;;4043416;29;20512;-83
2021/06/02 05:10:20;;;;;;;8.60;5.53;;;13.20;98.30;;;;;;4056749;29;20476;-83
2021/06/02 05:13:02;;;;;;;8.77;6.60;;;13.20;98.30;;;;;;4054096;29;21049;-83
2021/06/02 05:15:59;;;;;;;11.80;6.20;;;12.90;98.30;;;;;;4055011;29;20472;-82
2021/06/02 05:18:34;;;;;;;10.73;6.20;;;12.90;98.30;;;;;;3971536;29;20486;-83
2021/06/02 05:24:02;;;;;;;9.70;5.70;;;13.00;98.30;;;;;;4054527;29;20476;-84
2021/06/02 05:26:31;;;;;;;11.53;6.27;;;13.10;98.30;;;;;;4054715;29;20478;-83
2021/06/02 05:29:16;;;;;;;8.57;5.90;;;13.20;98.30;;;;;;4053808;29;20465;-83
2021/06/02 05:31:56;;;;;;;10.57;6.60;;;13.10;98.30;;;;;;4055384;29;20840;-82
2021/06/02 05:34:40;;;;;;;9.00;6.10;;;13.00;98.30;;;;;;4054859;29;20496;-83
2021/06/02 05:37:20;;;;;;;10.10;6.20;;;13.00;98.30;;;;;;4053850;29;20495;-86
2021/06/02 05:39:55;;;;;;;8.20;5.73;;;13.10;98.30;;;;;;4048387;29;21103;-85
2021/06/02 05:42:11;;;;;;;11.93;7.20;;;13.10;98.30;;;;;;4051873;29;20550;-86
2021/06/02 05:45:06;;;;;;;8.47;6.43;;;13.00;98.30;;;;;;4053526;29;20969;-86
2021/06/02 05:47:33;;;;;;;6.37;5.70;;;13.00;98.30;;;;;;4052738;29;20480;-85
2021/06/02 05:50:14;;;;;;;10.13;6.07;;;13.20;98.30;;;;;;4050122;29;20498;-86
2021/06/02 05:52:43;;;;;;;6.17;5.30;;;13.00;98.30;;;;;;4039462;29;20507;-85
2021/06/02 05:55:17;;;;;;;8.50;5.70;;;12.90;98.30;;;;;;4052396;29;20472;-86
2021/06/02 05:57:58;;;;;;;10.10;6.00;;;13.00;98.30;;;;;;4049704;29;20482;-85
2021/06/02 06:00:50;;;;;;;6.40;5.73;;;13.10;98.30;;;;;;4051395;29;20567;-86
2021/06/02 06:03:46;;;;;;;9.47;6.13;;;13.30;98.30;;;;;;4048486;29;20507;-86
2021/06/02 06:06:20;;;;;;;7.97;5.20;;;13.40;98.30;;;;;;4051938;29;20536;-86
2021/06/02 06:08:59;;;;;;;8.73;5.50;;;13.30;98.30;;;;;;4051895;29;20476;-85
2021/06/02 06:11:47;;;;;;;7.37;4.97;;;13.40;98.30;;;;;;4051033;29;21017;-86
2021/06/02 06:14:24;;;;;;;7.53;5.30;;;13.50;98.30;;;;;;4030329;29;20476;-86
2021/06/02 06:16:41;;;;;;;8.60;5.73;;;13.90;98.30;;;;;;4052063;29;20539;-86
2021/06/02 06:19:16;;;;;;;11.70;5.57;;;14.00;98.30;;;;;;4051124;29;20496;-85
2021/06/02 06:21:58;;;;;;;9.50;5.13;;;14.00;98.30;;;;;;4024740;29;20853;-86
2021/06/02 06:24:08;;;;;;;7.33;5.13;;;14.20;98.30;;;;;;4038674;29;20488;-86
2021/06/02 06:26:15;;;;;;;7.10;5.07;;;14.10;98.30;;;;;;4052003;29;20507;-86
2021/06/02 06:28:30;;;;;;;6.73;5.10;;;14.30;98.30;;;;;;4051514;29;20491;-86
2021/06/02 06:30:49;;;;;;;6.67;5.17;;;14.30;98.30;;;;;;4051795;29;20484;-86
2021/06/02 06:33:13;;;;;;;7.77;5.10;;;14.40;98.30;;;;;;4052259;29;20503;-86
2021/06/02 06:35:37;;;;;;;6.17;4.83;;;14.20;98.30;;;;;;4056574;29;20535;-86
2021/06/02 06:37:44;;;;;;;6.27;4.90;;;14.10;98.30;;;;;;4064392;29;20465;-86
2021/06/02 06:39:55;;;;;;;8.20;4.90;;;14.20;98.30;;;;;;4063988;29;20498;-86
2021/06/02 06:42:06;;;;;;;5.17;4.57;;;14.40;98.30;;;;;;4062115;29;20495;-87
2021/06/02 06:44:16;;;;;;;9.33;5.37;;;14.30;98.30;;;;;;4064487;29;20477;-86
2021/06/02 06:46:23;;;;;;;8.27;4.87;;;14.30;98.30;;;;;;4065647;29;20476;-86
2021/06/02 06:48:27;;;;;;;7.00;4.20;;;14.30;98.30;;;;;;4065304;29;20512;-87
2021/06/02 06:50:31;;;;;;;8.10;4.63;;;14.40;98.30;;;;;;4067545;29;20468;-86
2021/06/02 06:52:42;;;;;;;6.17;4.80;;;14.60;98.30;;;;;;4067154;29;20456;-86
2021/06/02 06:54:45;;;;;;;7.43;4.87;;;14.70;98.30;;;;;;4062263;29;20515;-86
2021/06/02 06:56:51;;;;;;;9.13;5.03;;;15.00;98.30;;;;;;4065630;29;20508;-87
2021/06/02 06:58:55;;;;;;;5.30;4.57;;;15.10;98.30;;;;;;4066066;29;20581;-87
2021/06/02 07:00:59;;;;;;;8.00;6.50;;;15.40;98.30;;;;;;4065054;29;20492;-87
2021/06/02 07:03:22;;;;;;;15.13;8.90;;;15.50;98.30;;;;;;4066958;29;20482;-86
2021/06/02 07:05:26;;;;;;;8.37;5.30;;;15.40;98.30;;;;;;4066047;29;20547;-86
2021/06/02 07:07:30;;;;;;;4.70;4.30;;;15.60;98.30;;;;;;4066833;29;20461;-86
2021/06/02 07:09:35;;;;;;;6.93;4.80;;;15.70;98.30;;;;;;4066913;29;20472;-87
2021/06/02 07:12:17;;;;;;;6.17;4.90;;;16.00;98.30;;;;;;4067525;29;20547;-86
2021/06/02 07:14:49;;;;;;;7.90;4.30;;;16.10;98.30;;;;;;4014932;29;20528;-85
2021/06/02 07:16:57;;;;;;;7.70;4.27;;;16.10;98.30;;;;;;4066050;29;20480;-87
2021/06/02 07:19:07;;;;;;;9.73;5.63;;;15.90;98.30;;;;;;4065463;29;20498;-86
2021/06/02 07:21:12;;;;;;;4.73;3.93;;;15.80;98.30;;;;;;4065144;29;20492;-86
2021/06/02 07:23:16;;;;;;;4.70;4.03;;;15.70;98.30;;;;;;4066259;29;20480;-86
2021/06/02 07:25:20;;;;;;;5.03;4.50;;;15.70;98.30;;;;;;4065709;29;20530;-86
2021/06/02 07:27:23;;;;;;;4.60;4.20;;;15.70;98.30;;;;;;4065221;29;20926;-86
2021/06/02 07:29:27;;;;;;;5.30;3.80;;;16.00;98.30;;;;;;4065976;29;20504;-86
2021/06/02 07:31:36;;;;;;;5.53;4.00;;;16.10;98.30;;;;;;4066107;29;20522;-86
2021/06/02 07:33:39;;;;;;;9.77;4.40;;;16.00;98.30;;;;;;4065061;29;20464;-86
2021/06/02 07:35:44;;;;;;;4.50;3.83;;;15.90;98.30;;;;;;4064507;29;20482;-86
2021/06/02 07:37:48;;;;;;;7.10;4.20;;;15.90;98.30;;;;;;4066302;29;20545;-85
2021/06/02 07:39:53;;;;;;;5.43;4.50;;;15.80;98.30;;;;;;4065607;29;20500;-87
2021/06/02 07:41:56;;;;;;;5.70;4.30;;;15.90;98.30;;;;;;4065619;29;20511;-86
2021/06/02 07:43:59;;;;;;;4.70;4.00;;;15.90;98.30;;;;;;4065047;29;20483;-87
2021/06/02 07:46:02;;;;;;;6.80;4.17;;;16.20;98.30;;;;;;4065062;29;20479;-86
2021/06/02 07:48:05;;;;;;;5.97;3.97;;;16.60;98.30;;;;;;4065916;29;20483;-87
2021/06/02 07:50:09;;;;;;;4.80;3.53;;;16.50;98.30;;;;;;4066130;29;20471;-87
2021/06/02 07:52:13;;;;;;;5.03;4.20;;;16.20;98.30;;;;;;4065240;29;20503;-86
2021/06/02 07:54:19;;;;;;;6.23;4.10;;;16.40;98.30;;;;;;4064700;29;20478;-87
2021/06/02 07:56:26;;;;;;;4.47;4.07;;;16.80;98.30;;;;;;4065358;29;20471;-87
2021/06/02 07:58:32;;;;;;;6.43;4.10;;;17.10;98.30;;;;;;4066849;29;20463;-86
2021/06/02 08:00:34;;;;;;;4.67;4.00;;;17.00;98.30;;;;;;4063254;29;20520;-86
2021/06/02 08:02:37;;;;;;;5.03;3.67;;;17.10;98.30;;;;;;4064157;29;20484;-87
2021/06/02 08:04:40;;;;;;;7.60;4.10;;;17.20;98.30;;;;;;4064942;29;20527;-87
2021/06/02 08:06:46;;;;;;;7.57;4.40;;;17.30;98.30;;;;;;4065491;29;20476;-86
2021/06/02 08:08:53;;;;;;;7.53;4.27;;;17.50;98.20;;;;;;4064643;29;20468;-86
2021/06/02 08:10:56;;;;;;;4.93;3.87;;;17.50;98.10;;;;;;4065639;29;20492;-87
2021/06/02 08:13:03;;;;;;;4.57;3.80;;;17.40;98.00;;;;;;4064035;29;20508;-86
2021/06/02 08:15:08;;;;;;;6.80;4.00;;;17.40;98.30;;;;;;4065379;29;20471;-87
2021/06/02 08:17:11;;;;;;;4.87;4.00;;;17.30;98.30;;;;;;4065319;29;20468;-87
2021/06/02 08:19:14;;;;;;;4.03;3.63;;;17.50;97.50;;;;;;4065525;29;20490;-86
2021/06/02 08:21:22;;;;;;;5.50;5.00;;;17.60;97.40;;;;;;4064652;29;20484;-87
2021/06/02 08:23:30;;;;;;;4.70;3.37;;;17.60;95.80;;;;;;4065325;29;20472;-87
2021/06/02 08:25:40;;;;;;;4.83;3.67;;;17.30;96.40;;;;;;4065808;29;20452;-88
2021/06/02 08:27:48;;;;;;;5.70;4.33;;;17.50;97.40;;;;;;4065153;29;20478;-87
2021/06/02 08:29:53;;;;;;;4.00;3.27;;;17.70;95.20;;;;;;4064807;29;20483;-87
2021/06/02 08:31:56;;;;;;;5.60;4.00;;;17.40;95.20;;;;;;4064433;29;21048;-87
2021/06/02 08:34:05;;;;;;;3.60;3.30;;;17.20;95.40;;;;;;4062924;29;20468;-87
2021/06/02 08:36:11;;;;;;;3.93;3.50;;;17.50;95.90;;;;;;4063972;29;20470;-87
2021/06/02 08:38:15;;;;;;;4.90;3.57;;;17.50;94.90;;;;;;4064840;29;20487;-87
2021/06/02 08:40:29;;;;;;;8.73;4.10;;;17.50;95.70;;;;;;4064424;29;20506;-86
2021/06/02 08:42:41;;;;;;;5.40;3.90;;;17.70;95.10;;;;;;4064492;29;21151;-87
2021/06/02 08:44:44;;;;;;;4.70;3.90;;;17.90;94.80;;;;;;4063335;29;20470;-88
2021/06/02 08:46:47;;;;;;;4.20;3.53;;;17.70;94.70;;;;;;4062955;29;20471;-87
2021/06/02 08:48:51;;;;;;;5.10;3.67;;;17.90;94.50;;;;;;4064671;29;20503;-86
2021/06/02 08:50:54;;;;;;;5.63;4.43;;;17.70;94.00;;;;;;4064724;29;20476;-87
2021/06/02 08:53:01;;;;;;;4.73;4.00;;;17.60;95.30;;;;;;4066367;29;20483;-87
2021/06/02 08:55:09;;;;;;;7.10;3.93;;;17.80;94.70;;;;;;4066707;29;20487;-87
2021/06/02 08:57:12;;;;;;;8.47;4.40;;;18.20;94.30;;;;;;4066302;29;20850;-87
2021/06/02 08:59:21;;;;;;;4.90;3.43;;;18.60;93.10;;;;;;4068256;29;20565;-87
2021/06/02 09:01:32;;;;;;;13.20;3.60;;;18.60;92.00;;;;;;4065932;29;20543;-87
2021/06/02 09:03:45;;;;;;;5.47;3.73;;;18.60;92.00;;;;;;4065005;29;20513;-87
2021/06/02 09:05:56;;;;;;;5.37;3.50;;;18.50;92.40;;;;;;4065162;29;20532;-87
2021/06/02 09:08:10;;;;;;;6.17;4.77;;;18.50;92.60;;;;;;4055452;29;20499;-87
2021/06/02 09:10:22;;;;;;;5.13;3.90;;;18.80;92.10;;;;;;4053308;29;20468;-87
2021/06/02 09:12:42;;;;;;;7.07;3.93;;;18.40;92.70;;;;;;4047285;29;20495;-87
2021/06/02 09:15:06;;;;;;;7.60;4.57;;;18.70;92.40;;;;;;4037311;29;20547;-86
2021/06/02 09:17:12;;;;;;;5.67;3.80;;;18.70;91.70;;;;;;4049398;29;20474;-88
2021/06/02 09:19:41;;;;;;;4.33;3.73;;;18.60;92.20;;;;;;4048045;29;20472;-87
2021/06/02 09:21:59;;;;;;;3.70;3.40;;;18.30;92.40;;;;;;4063624;29;20502;-87
2021/06/02 09:24:02;;;;;;;7.80;3.87;;;18.20;92.20;;;;;;4064129;29;20583;-88
2021/06/02 09:26:30;;;;;;;3.47;3.17;;;18.10;93.20;;;;;;4065246;29;20464;-87
2021/06/02 09:29:03;;;;;;;4.43;3.20;;;18.10;92.50;;;;;;4063732;29;21090;-87
2021/06/02 09:31:21;;;;;;;4.60;3.70;;;18.00;93.70;;;;;;4064444;29;20544;-86
2021/06/02 09:33:25;;;;;;;4.60;4.10;;;18.10;94.00;;;;;;4062348;29;20482;-87
2021/06/02 09:39:04;;;;;;;9.50;4.30;;;18.90;93.00;;;;;;4039095;29;21214;-87
2021/06/02 09:41:31;;;;;;;6.00;3.40;;;18.90;92.90;;;;;;4048887;29;20507;-87
2021/06/02 09:44:08;;;;;;;4.83;3.60;;;19.30;92.40;;;;;;4050024;29;20548;-88
2021/06/02 09:49:13;;;;;;;4.73;3.57;;;19.20;92.00;;;;;;4027419;29;20836;-88
2021/06/02 09:51:41;;;;;;;5.40;3.50;;;18.90;92.50;;;;;;4036675;29;21053;-88
2021/06/02 09:56:46;;;;;;;4.63;3.67;;;19.30;90.70;;;;;;4059720;29;20482;-88
2021/06/02 09:59:27;;;;;;;6.77;3.93;;;19.10;91.50;;;;;;4061719;29;20476;-88
2021/06/02 10:02:10;;;;;;;6.87;4.00;;;19.30;91.30;;;;;;4065215;29;20504;-88
2021/06/02 10:13:44;;;;;;;4.33;3.80;;;19.00;92.60;;;;;;4017839;29;20539;-87
2021/06/02 10:16:02;;;;;;;5.80;3.70;;;19.10;91.70;;;;;;4050073;29;20551;-87
2021/06/02 10:22:34;;;;;;;3.93;3.60;;;19.50;90.90;;;;;;3896844;30;21265;-88
2021/06/02 10:25:17;;;;;;;6.53;4.03;;;20.00;90.30;;;;;;3927744;30;20549;-87
2021/06/02 10:27:54;;;;;;;7.03;3.90;;;19.80;90.10;;;;;;3921781;30;20988;-87
2021/06/02 10:30:22;;;;;;;4.63;3.80;;;19.50;91.00;;;;;;3929968;30;20553;-87
2021/06/02 10:32:41;;;;;;;6.10;3.70;;;19.80;92.10;;;;;;3919937;30;20500;-88
2021/06/02 10:35:02;;;;;;;4.57;3.63;;;20.30;90.50;;;;;;3922643;30;21071;-87
2021/06/02 10:39:39;;;;;;;5.50;4.17;;;20.50;87.10;;;;;;3903930;30;20582;-87
2021/06/02 10:42:03;;;;;;;4.90;3.40;;;20.20;88.20;;;;;;3939881;30;20492;-86
2021/06/02 10:44:13;;;;;;;5.17;4.10;;;20.30;89.90;;;;;;3939342;30;20507;-88
2021/06/02 10:46:36;;;;;;;5.10;4.00;;;20.70;87.50;;;;;;3970120;29;20537;-88
2021/06/02 10:49:12;;;;;;;;;;;;;;;;;;;;;
2021/06/02 10:54:50;;;;;;;5.13;3.40;;;20.40;87.30;;;;;;4000257;29;20514;-87
2021/06/02 11:01:10;;;;;;;4.47;3.73;;;21.30;86.30;;;;;;3958129;29;20502;-88
2021/06/02 17:27:59;;;;;;;7.03;6.37;;;23.10;86.00;;;;;;4050580;29;20575;-89
2021/06/02 17:30:04;;;;;;;6.43;5.80;;;23.00;86.50;;;;;;4049471;29;21000;-86
2021/06/02 17:32:08;;;;;;;6.57;5.87;;;22.90;86.50;;;;;;4051413;29;20566;-86
2021/06/02 17:34:14;;;;;;;6.27;5.67;;;23.00;86.60;;;;;;4050296;29;21116;-86
2021/06/02 17:36:17;;;;;;;6.47;5.87;;;22.90;86.70;;;;;;4049809;29;20494;-85
2021/06/02 17:38:19;;;;;;;6.53;5.87;;;22.90;86.30;;;;;;4050852;29;20823;-85
2021/06/02 17:40:22;;;;;;;7.67;6.33;;;22.90;86.60;;;;;;4050479;29;20479;-85
2021/06/02 17:42:25;;;;;;;6.60;6.00;;;22.90;86.70;;;;;;4050459;29;20885;-86
2021/06/02 17:44:29;;;;;;;7.33;6.40;;;22.80;87.00;;;;;;4052285;29;20571;-84
2021/06/02 17:46:32;;;;;;;7.77;7.07;;;22.80;86.80;;;;;;4051472;29;20567;-85
2021/06/02 17:48:38;;;;;;;6.23;5.63;;;22.70;87.20;;;;;;4051030;29;20474;-85
2021/06/02 17:50:41;;;;;;;6.50;5.90;;;22.60;87.50;;;;;;4048872;29;20484;-89
2021/06/02 17:52:51;;;;;;;7.40;6.40;;;22.60;87.80;;;;;;4049865;29;20472;-84
2021/06/02 17:54:55;;;;;;;6.80;6.10;;;22.50;87.60;;;;;;4048610;29;20838;-86
2021/06/02 17:57:01;;;;;;;6.43;5.83;;;22.50;88.10;;;;;;4049102;29;20567;-86
2021/06/02 17:59:05;;;;;;;5.87;5.37;;;22.40;88.20;;;;;;4050179;29;20472;-87
2021/06/02 18:01:12;;;;;;;7.30;6.10;;;22.40;88.20;;;;;;4050390;29;21010;-87
2021/06/02 18:03:15;;;;;;;7.23;6.53;;;22.40;88.30;;;;;;4050078;29;20468;-85
2021/06/02 18:08:29;;;;;;;7.47;6.67;;;22.30;88.60;;;;;;4037131;29;20477;-88
2021/06/02 18:10:33;;;;;;;6.43;5.63;;;22.30;88.60;;;;;;4048089;29;20984;-88
2021/06/02 18:13:16;;;;;;;7.20;6.37;;;22.30;88.80;;;;;;4052590;29;20476;-88
2021/06/02 18:15:20;;;;;;;6.20;5.60;;;22.20;89.20;;;;;;4050155;29;20483;-84
2021/06/02 18:17:30;;;;;;;8.80;7.90;;;22.20;89.50;;;;;;4048900;29;20523;-85
2021/06/02 18:19:32;;;;;;;6.53;5.93;;;22.20;89.50;;;;;;4050126;29;20475;-84
2021/06/02 18:21:39;;;;;;;7.23;6.63;;;22.20;89.50;;;;;;4047577;29;20502;-86
2021/06/02 18:23:44;;;;;;;6.60;6.00;;;22.20;89.50;;;;;;4051046;29;21045;-87
2021/06/02 18:25:52;;;;;;;9.20;6.17;;;22.10;89.60;;;;;;4051095;29;20515;-85
2021/06/02 18:27:57;;;;;;;6.63;6.03;;;22.10;89.80;;;;;;4050089;29;20463;-85
2021/06/02 18:30:02;;;;;;;7.10;6.40;;;22.10;89.90;;;;;;4049218;29;20483;-86
2021/06/02 18:32:11;;;;;;;7.10;6.40;;;22.00;90.00;;;;;;4049716;29;20465;-84
2021/06/02 18:34:16;;;;;;;7.20;5.90;;;22.00;90.20;;;;;;4049251;29;20889;-84
2021/06/02 18:36:21;;;;;;;8.73;6.43;;;21.90;90.30;;;;;;4050295;29;20478;-84
2021/06/02 18:38:29;;;;;;;6.20;5.60;;;21.90;90.70;;;;;;4050321;29;20475;-84
2021/06/02 18:40:39;;;;;;;6.63;5.80;;;21.90;90.80;;;;;;4049630;29;20965;-85